sensor_id;sensor_type;location;lat;lon;timestamp;temperature;humidity
68977;SHT31;56029;52.568;13.588;2022-07-23T00:00:58;15.99;85.47
68977;SHT31;56029;52.568;13.588;2022-07-23T00:03:23;16.00;85.81
68977;SHT31;56029;52.568;13.588;2022-07-23T00:05:49;16.13;85.52
68977;SHT31;56029;52.568;13.588;2022-07-23T00:08:14;16.16;84.94
68977;SHT31;56029;52.568;13.588;2022-07-23T00:10:40;16.21;85.04
68977;SHT31;56029;52.568;13.588;2022-07-23T00:13:06;16.23;85.05
68977;SHT31;56029;52.568;13.588;2022-07-23T00:15:32;16.26;85.19
68977;SHT31;56029;52.568;13.588;2022-07-23T00:17:57;16.23;85.60
68977;SHT31;56029;52.568;13.588;2022-07-23T00:20:22;16.17;85.86
68977;SHT31;56029;52.568;13.588;2022-07-23T00:22:54;16.16;86.13
68977;SHT31;56029;52.568;13.588;2022-07-23T00:25:23;16.16;86.26
68977;SHT31;56029;52.568;13.588;2022-07-23T00:27:49;16.13;86.42
68977;SHT31;56029;52.568;13.588;2022-07-23T00:30:14;16.16;86.41
68977;SHT31;56029;52.568;13.588;2022-07-23T00:32:51;16.19;86.40
68977;SHT31;56029;52.568;13.588;2022-07-23T00:35:20;16.23;86.14
68977;SHT31;56029;52.568;13.588;2022-07-23T00:37:46;16.30;86.11
68977;SHT31;56029;52.568;13.588;2022-07-23T00:40:12;16.30;85.81
68977;SHT31;56029;52.568;13.588;2022-07-23T00:42:38;16.31;85.83
68977;SHT31;56029;52.568;13.588;2022-07-23T00:45:04;16.31;85.06
68977;SHT31;56029;52.568;13.588;2022-07-23T00:47:30;16.24;85.40
68977;SHT31;56029;52.568;13.588;2022-07-23T00:49:55;16.24;85.41
68977;SHT31;56029;52.568;13.588;2022-07-23T00:52:21;16.17;85.37
68977;SHT31;56029;52.568;13.588;2022-07-23T00:54:48;16.10;85.77
68977;SHT31;56029;52.568;13.588;2022-07-23T00:57:14;16.09;85.45
68977;SHT31;56029;52.568;13.588;2022-07-23T00:59:40;15.93;84.81
68977;SHT31;56029;52.568;13.588;2022-07-23T01:02:05;15.92;85.84
68977;SHT31;56029;52.568;13.588;2022-07-23T01:04:31;15.92;85.68
68977;SHT31;56029;52.568;13.588;2022-07-23T01:06:58;15.99;85.71
68977;SHT31;56029;52.568;13.588;2022-07-23T01:09:23;16.12;86.07
68977;SHT31;56029;52.568;13.588;2022-07-23T01:11:50;16.10;86.04
68977;SHT31;56029;52.568;13.588;2022-07-23T01:14:17;16.03;85.96
68977;SHT31;56029;52.568;13.588;2022-07-23T01:16:45;16.06;86.06
68977;SHT31;56029;52.568;13.588;2022-07-23T01:19:12;16.00;86.01
68977;SHT31;56029;52.568;13.588;2022-07-23T01:21:40;15.96;86.20
68977;SHT31;56029;52.568;13.588;2022-07-23T01:24:06;16.06;86.07
68977;SHT31;56029;52.568;13.588;2022-07-23T01:26:32;16.00;86.25
68977;SHT31;56029;52.568;13.588;2022-07-23T01:28:58;16.00;86.51
68977;SHT31;56029;52.568;13.588;2022-07-23T01:31:23;15.96;86.74
68977;SHT31;56029;52.568;13.588;2022-07-23T01:33:49;15.96;86.88
68977;SHT31;56029;52.568;13.588;2022-07-23T01:36:15;15.96;86.88
68977;SHT31;56029;52.568;13.588;2022-07-23T01:38:40;15.98;86.65
68977;SHT31;56029;52.568;13.588;2022-07-23T01:41:06;15.96;86.89
68977;SHT31;56029;52.568;13.588;2022-07-23T01:43:31;15.89;86.96
68977;SHT31;56029;52.568;13.588;2022-07-23T01:45:57;15.91;86.82
68977;SHT31;56029;52.568;13.588;2022-07-23T01:48:22;15.91;86.77
68977;SHT31;56029;52.568;13.588;2022-07-23T01:50:48;15.89;86.89
68977;SHT31;56029;52.568;13.588;2022-07-23T01:53:14;15.83;87.01
68977;SHT31;56029;52.568;13.588;2022-07-23T01:55:41;15.68;87.25
68977;SHT31;56029;52.568;13.588;2022-07-23T01:58:06;15.65;86.97
68977;SHT31;56029;52.568;13.588;2022-07-23T02:00:32;15.62;87.07
68977;SHT31;56029;52.568;13.588;2022-07-23T02:02:58;15.59;86.75
68977;SHT31;56029;52.568;13.588;2022-07-23T02:05:25;15.58;87.65
68977;SHT31;56029;52.568;13.588;2022-07-23T02:07:50;15.52;87.11
68977;SHT31;56029;52.568;13.588;2022-07-23T02:10:16;15.37;86.92
68977;SHT31;56029;52.568;13.588;2022-07-23T02:12:42;15.40;86.82
68977;SHT31;56029;52.568;13.588;2022-07-23T02:15:08;15.19;86.84
68977;SHT31;56029;52.568;13.588;2022-07-23T02:17:33;15.06;87.87
68977;SHT31;56029;52.568;13.588;2022-07-23T02:19:59;14.87;88.37
68977;SHT31;56029;52.568;13.588;2022-07-23T02:22:25;14.90;88.51
68977;SHT31;56029;52.568;13.588;2022-07-23T02:24:50;14.79;87.28
68977;SHT31;56029;52.568;13.588;2022-07-23T02:27:16;14.77;87.52
68977;SHT31;56029;52.568;13.588;2022-07-23T02:29:41;14.89;88.27
68977;SHT31;56029;52.568;13.588;2022-07-23T02:32:07;14.97;88.67
68977;SHT31;56029;52.568;13.588;2022-07-23T02:34:33;15.11;88.64
68977;SHT31;56029;52.568;13.588;2022-07-23T02:36:58;15.20;88.73
68977;SHT31;56029;52.568;13.588;2022-07-23T02:39:24;15.33;88.39
68977;SHT31;56029;52.568;13.588;2022-07-23T02:41:49;15.37;88.07
68977;SHT31;56029;52.568;13.588;2022-07-23T02:44:15;15.44;88.04
68977;SHT31;56029;52.568;13.588;2022-07-23T02:46:40;15.42;88.11
68977;SHT31;56029;52.568;13.588;2022-07-23T02:49:06;15.47;88.25
68977;SHT31;56029;52.568;13.588;2022-07-23T02:51:31;15.50;87.95
68977;SHT31;56029;52.568;13.588;2022-07-23T02:53:57;15.42;88.03
68977;SHT31;56029;52.568;13.588;2022-07-23T02:56:22;15.37;88.51
68977;SHT31;56029;52.568;13.588;2022-07-23T02:58:48;15.33;88.57
68977;SHT31;56029;52.568;13.588;2022-07-23T03:01:13;15.27;88.88
68977;SHT31;56029;52.568;13.588;2022-07-23T03:03:39;15.26;88.81
68977;SHT31;56029;52.568;13.588;2022-07-23T03:06:05;15.26;88.89
68977;SHT31;56029;52.568;13.588;2022-07-23T03:08:30;15.24;89.08
68977;SHT31;56029;52.568;13.588;2022-07-23T03:10:56;15.24;88.90
68977;SHT31;56029;52.568;13.588;2022-07-23T03:13:21;15.26;89.01
68977;SHT31;56029;52.568;13.588;2022-07-23T03:15:47;15.26;89.12
68977;SHT31;56029;52.568;13.588;2022-07-23T03:18:13;15.19;89.36
68977;SHT31;56029;52.568;13.588;2022-07-23T03:20:38;15.11;89.69
68977;SHT31;56029;52.568;13.588;2022-07-23T03:23:04;15.11;89.85
68977;SHT31;56029;52.568;13.588;2022-07-23T03:25:30;15.11;89.80
68977;SHT31;56029;52.568;13.588;2022-07-23T03:27:55;15.19;89.59
68977;SHT31;56029;52.568;13.588;2022-07-23T03:30:21;15.13;89.66
68977;SHT31;56029;52.568;13.588;2022-07-23T03:32:47;15.08;89.77
68977;SHT31;56029;52.568;13.588;2022-07-23T03:35:12;14.97;90.50
68977;SHT31;56029;52.568;13.588;2022-07-23T03:37:38;14.87;90.69
68977;SHT31;56029;52.568;13.588;2022-07-23T03:40:04;14.93;90.92
68977;SHT31;56029;52.568;13.588;2022-07-23T03:42:30;14.92;91.34
68977;SHT31;56029;52.568;13.588;2022-07-23T03:44:55;14.97;91.27
68977;SHT31;56029;52.568;13.588;2022-07-23T03:47:21;15.07;91.02
68977;SHT31;56029;52.568;13.588;2022-07-23T03:49:49;15.11;90.64
68977;SHT31;56029;52.568;13.588;2022-07-23T03:52:15;15.16;90.54
68977;SHT31;56029;52.568;13.588;2022-07-23T03:54:41;15.23;90.26
68977;SHT31;56029;52.568;13.588;2022-07-23T03:57:06;15.35;89.68
68977;SHT31;56029;52.568;13.588;2022-07-23T03:59:32;15.55;88.85
68977;SHT31;56029;52.568;13.588;2022-07-23T04:01:57;15.41;88.98
68977;SHT31;56029;52.568;13.588;2022-07-23T04:04:23;15.31;89.45
68977;SHT31;56029;52.568;13.588;2022-07-23T04:06:49;15.27;89.54
68977;SHT31;56029;52.568;13.588;2022-07-23T04:09:14;15.16;89.66
68977;SHT31;56029;52.568;13.588;2022-07-23T04:11:40;15.17;89.56
68977;SHT31;56029;52.568;13.588;2022-07-23T04:14:06;15.16;89.36
68977;SHT31;56029;52.568;13.588;2022-07-23T04:16:31;15.17;89.27
68977;SHT31;56029;52.568;13.588;2022-07-23T04:18:57;15.24;88.52
68977;SHT31;56029;52.568;13.588;2022-07-23T04:21:23;15.27;88.43
68977;SHT31;56029;52.568;13.588;2022-07-23T04:23:49;15.28;88.23
68977;SHT31;56029;52.568;13.588;2022-07-23T04:26:15;15.31;88.30
68977;SHT31;56029;52.568;13.588;2022-07-23T04:28:41;15.35;88.05
68977;SHT31;56029;52.568;13.588;2022-07-23T04:31:07;15.40;87.70
68977;SHT31;56029;52.568;13.588;2022-07-23T04:33:32;15.42;87.58
68977;SHT31;56029;52.568;13.588;2022-07-23T04:35:58;15.44;87.33
68977;SHT31;56029;52.568;13.588;2022-07-23T04:38:24;15.50;87.34
68977;SHT31;56029;52.568;13.588;2022-07-23T04:40:49;15.54;86.96
68977;SHT31;56029;52.568;13.588;2022-07-23T04:43:15;15.52;87.01
68977;SHT31;56029;52.568;13.588;2022-07-23T04:45:41;15.59;86.24
68977;SHT31;56029;52.568;13.588;2022-07-23T04:48:06;15.55;85.96
68977;SHT31;56029;52.568;13.588;2022-07-23T04:50:32;15.61;86.00
68977;SHT31;56029;52.568;13.588;2022-07-23T04:52:57;15.65;85.73
68977;SHT31;56029;52.568;13.588;2022-07-23T04:55:23;15.68;84.61
68977;SHT31;56029;52.568;13.588;2022-07-23T04:57:49;15.65;87.00
68977;SHT31;56029;52.568;13.588;2022-07-23T05:00:15;15.73;88.17
68977;SHT31;56029;52.568;13.588;2022-07-23T05:02:40;15.71;88.48
68977;SHT31;56029;52.568;13.588;2022-07-23T05:05:06;15.66;88.73
68977;SHT31;56029;52.568;13.588;2022-07-23T05:07:32;15.59;88.96
68977;SHT31;56029;52.568;13.588;2022-07-23T05:09:57;15.51;88.46
68977;SHT31;56029;52.568;13.588;2022-07-23T05:12:23;15.40;88.92
68977;SHT31;56029;52.568;13.588;2022-07-23T05:14:48;15.34;89.59
68977;SHT31;56029;52.568;13.588;2022-07-23T05:17:14;15.20;90.78
68977;SHT31;56029;52.568;13.588;2022-07-23T05:19:40;15.19;91.52
68977;SHT31;56029;52.568;13.588;2022-07-23T05:22:05;15.07;90.88
68977;SHT31;56029;52.568;13.588;2022-07-23T05:24:30;15.04;91.53
68977;SHT31;56029;52.568;13.588;2022-07-23T05:26:56;15.06;91.30
68977;SHT31;56029;52.568;13.588;2022-07-23T05:29:22;15.02;91.15
68977;SHT31;56029;52.568;13.588;2022-07-23T05:31:47;14.97;92.13
68977;SHT31;56029;52.568;13.588;2022-07-23T05:34:13;15.02;90.70
68977;SHT31;56029;52.568;13.588;2022-07-23T05:36:39;15.02;91.32
68977;SHT31;56029;52.568;13.588;2022-07-23T05:39:04;15.13;91.47
68977;SHT31;56029;52.568;13.588;2022-07-23T05:41:30;15.21;90.82
68977;SHT31;56029;52.568;13.588;2022-07-23T05:43:55;15.28;91.17
68977;SHT31;56029;52.568;13.588;2022-07-23T05:46:21;15.31;89.52
68977;SHT31;56029;52.568;13.588;2022-07-23T05:48:47;15.38;90.36
68977;SHT31;56029;52.568;13.588;2022-07-23T05:51:22;15.41;89.88
68977;SHT31;56029;52.568;13.588;2022-07-23T05:53:48;15.38;90.31
68977;SHT31;56029;52.568;13.588;2022-07-23T05:56:13;15.38;90.64
68977;SHT31;56029;52.568;13.588;2022-07-23T05:58:39;15.26;90.58
68977;SHT31;56029;52.568;13.588;2022-07-23T06:01:05;15.19;90.77
68977;SHT31;56029;52.568;13.588;2022-07-23T06:03:30;15.24;90.84
68977;SHT31;56029;52.568;13.588;2022-07-23T06:05:55;15.40;91.46
68977;SHT31;56029;52.568;13.588;2022-07-23T06:08:21;15.45;91.11
68977;SHT31;56029;52.568;13.588;2022-07-23T06:10:47;15.54;91.62
68977;SHT31;56029;52.568;13.588;2022-07-23T06:13:12;15.54;89.79
68977;SHT31;56029;52.568;13.588;2022-07-23T06:15:38;15.50;90.29
68977;SHT31;56029;52.568;13.588;2022-07-23T06:18:04;15.40;88.87
68977;SHT31;56029;52.568;13.588;2022-07-23T06:20:29;15.41;89.82
68977;SHT31;56029;52.568;13.588;2022-07-23T06:22:55;15.33;89.37
68977;SHT31;56029;52.568;13.588;2022-07-23T06:25:20;15.30;90.13
68977;SHT31;56029;52.568;13.588;2022-07-23T06:27:46;15.19;90.75
68977;SHT31;56029;52.568;13.588;2022-07-23T06:30:13;15.13;90.65
68977;SHT31;56029;52.568;13.588;2022-07-23T06:32:39;15.13;90.92
68977;SHT31;56029;52.568;13.588;2022-07-23T06:35:05;15.23;91.38
68977;SHT31;56029;52.568;13.588;2022-07-23T06:37:30;15.30;90.13
68977;SHT31;56029;52.568;13.588;2022-07-23T06:39:56;15.38;90.31
68977;SHT31;56029;52.568;13.588;2022-07-23T06:42:21;15.45;90.90
68977;SHT31;56029;52.568;13.588;2022-07-23T06:44:47;15.45;90.18
68977;SHT31;56029;52.568;13.588;2022-07-23T06:47:12;15.34;90.58
68977;SHT31;56029;52.568;13.588;2022-07-23T06:49:38;15.27;91.78
68977;SHT31;56029;52.568;13.588;2022-07-23T06:52:07;15.19;92.02
68977;SHT31;56029;52.568;13.588;2022-07-23T06:54:32;15.07;91.81
68977;SHT31;56029;52.568;13.588;2022-07-23T06:56:58;15.06;92.31
68977;SHT31;56029;52.568;13.588;2022-07-23T06:59:24;15.20;92.74
68977;SHT31;56029;52.568;13.588;2022-07-23T07:01:49;15.34;92.39
68977;SHT31;56029;52.568;13.588;2022-07-23T07:04:14;15.47;91.88
68977;SHT31;56029;52.568;13.588;2022-07-23T07:06:40;15.57;91.64
68977;SHT31;56029;52.568;13.588;2022-07-23T07:09:06;15.66;91.43
68977;SHT31;56029;52.568;13.588;2022-07-23T07:11:31;15.71;90.99
68977;SHT31;56029;52.568;13.588;2022-07-23T07:13:57;15.75;90.74
68977;SHT31;56029;52.568;13.588;2022-07-23T07:16:23;15.86;91.33
68977;SHT31;56029;52.568;13.588;2022-07-23T07:18:48;15.95;90.90
68977;SHT31;56029;52.568;13.588;2022-07-23T07:21:14;15.93;90.18
68977;SHT31;56029;52.568;13.588;2022-07-23T07:23:39;15.93;89.04
68977;SHT31;56029;52.568;13.588;2022-07-23T07:26:05;16.00;90.65
68977;SHT31;56029;52.568;13.588;2022-07-23T07:28:30;16.00;89.58
68977;SHT31;56029;52.568;13.588;2022-07-23T07:30:56;16.09;90.16
68977;SHT31;56029;52.568;13.588;2022-07-23T07:33:21;15.96;89.15
68977;SHT31;56029;52.568;13.588;2022-07-23T07:35:47;15.83;87.67
68977;SHT31;56029;52.568;13.588;2022-07-23T07:38:13;15.96;87.98
68977;SHT31;56029;52.568;13.588;2022-07-23T07:40:38;16.17;88.46
68977;SHT31;56029;52.568;13.588;2022-07-23T07:43:04;16.33;87.93
68977;SHT31;56029;52.568;13.588;2022-07-23T07:45:30;16.26;88.05
68977;SHT31;56029;52.568;13.588;2022-07-23T07:47:55;16.24;87.93
68977;SHT31;56029;52.568;13.588;2022-07-23T07:50:21;16.24;87.61
68977;SHT31;56029;52.568;13.588;2022-07-23T07:52:47;16.21;88.40
68977;SHT31;56029;52.568;13.588;2022-07-23T07:55:13;16.34;88.35
68977;SHT31;56029;52.568;13.588;2022-07-23T07:57:39;16.37;87.64
68977;SHT31;56029;52.568;13.588;2022-07-23T08:00:06;16.31;87.78
68977;SHT31;56029;52.568;13.588;2022-07-23T08:02:47;16.30;87.90
68977;SHT31;56029;52.568;13.588;2022-07-23T08:05:14;16.09;88.63
68977;SHT31;56029;52.568;13.588;2022-07-23T08:07:40;16.12;89.22
68977;SHT31;56029;52.568;13.588;2022-07-23T08:10:07;16.13;87.82
68977;SHT31;56029;52.568;13.588;2022-07-23T08:12:41;16.23;88.01
68977;SHT31;56029;52.568;13.588;2022-07-23T08:15:08;16.34;89.78
68977;SHT31;56029;52.568;13.588;2022-07-23T08:17:34;16.41;90.26
68977;SHT31;56029;52.568;13.588;2022-07-23T08:20:00;16.29;89.24
68977;SHT31;56029;52.568;13.588;2022-07-23T08:22:25;16.24;89.62
68977;SHT31;56029;52.568;13.588;2022-07-23T08:25:06;16.40;90.18
68977;SHT31;56029;52.568;13.588;2022-07-23T08:27:31;16.40;89.99
68977;SHT31;56029;52.568;13.588;2022-07-23T08:29:57;16.51;89.23
68977;SHT31;56029;52.568;13.588;2022-07-23T08:32:22;16.61;89.46
68977;SHT31;56029;52.568;13.588;2022-07-23T08:34:48;16.63;88.22
68977;SHT31;56029;52.568;13.588;2022-07-23T08:37:13;16.47;85.99
68977;SHT31;56029;52.568;13.588;2022-07-23T08:39:39;16.70;88.06
68977;SHT31;56029;52.568;13.588;2022-07-23T08:42:04;16.77;87.51
68977;SHT31;56029;52.568;13.588;2022-07-23T08:44:31;17.04;86.24
68977;SHT31;56029;52.568;13.588;2022-07-23T08:46:57;17.18;84.62
68977;SHT31;56029;52.568;13.588;2022-07-23T08:49:22;17.37;85.50
68977;SHT31;56029;52.568;13.588;2022-07-23T08:51:48;17.39;83.29
68977;SHT31;56029;52.568;13.588;2022-07-23T08:54:13;17.50;82.66
68977;SHT31;56029;52.568;13.588;2022-07-23T08:56:40;17.83;85.06
68977;SHT31;56029;52.568;13.588;2022-07-23T08:59:05;17.74;83.62
68977;SHT31;56029;52.568;13.588;2022-07-23T09:01:31;17.76;81.72
68977;SHT31;56029;52.568;13.588;2022-07-23T09:03:57;17.83;83.97
68977;SHT31;56029;52.568;13.588;2022-07-23T09:06:22;17.94;83.03
68977;SHT31;56029;52.568;13.588;2022-07-23T09:08:48;17.93;82.50
68977;SHT31;56029;52.568;13.588;2022-07-23T09:11:17;18.05;81.36
68977;SHT31;56029;52.568;13.588;2022-07-23T09:13:52;18.32;81.10
68977;SHT31;56029;52.568;13.588;2022-07-23T09:16:24;18.12;78.10
68977;SHT31;56029;52.568;13.588;2022-07-23T09:18:55;18.08;78.29
68977;SHT31;56029;52.568;13.588;2022-07-23T09:28:58;18.57;77.83
68977;SHT31;56029;52.568;13.588;2022-07-23T09:31:25;18.56;75.85
68977;SHT31;56029;52.568;13.588;2022-07-23T09:33:51;18.74;77.72
68977;SHT31;56029;52.568;13.588;2022-07-23T09:36:27;18.96;77.47
68977;SHT31;56029;52.568;13.588;2022-07-23T09:38:54;19.04;75.19
68977;SHT31;56029;52.568;13.588;2022-07-23T09:41:19;19.03;75.81
68977;SHT31;56029;52.568;13.588;2022-07-23T09:43:44;19.06;75.62
68977;SHT31;56029;52.568;13.588;2022-07-23T09:46:20;19.07;76.09
68977;SHT31;56029;52.568;13.588;2022-07-23T09:48:47;18.89;76.35
68977;SHT31;56029;52.568;13.588;2022-07-23T09:51:13;18.84;75.19
68977;SHT31;56029;52.568;13.588;2022-07-23T09:53:45;18.77;76.35
68977;SHT31;56029;52.568;13.588;2022-07-23T09:56:11;18.87;76.96
68977;SHT31;56029;52.568;13.588;2022-07-23T09:58:40;19.08;76.21
68977;SHT31;56029;52.568;13.588;2022-07-23T10:01:12;19.42;75.13
68977;SHT31;56029;52.568;13.588;2022-07-23T10:03:39;19.87;75.88
68977;SHT31;56029;52.568;13.588;2022-07-23T10:06:05;19.75;72.73
68977;SHT31;56029;52.568;13.588;2022-07-23T10:08:33;19.39;73.94
68977;SHT31;56029;52.568;13.588;2022-07-23T10:11:00;19.24;74.11
68977;SHT31;56029;52.568;13.588;2022-07-23T10:13:26;19.73;72.88
68977;SHT31;56029;52.568;13.588;2022-07-23T10:16:15;19.94;69.89
68977;SHT31;56029;52.568;13.588;2022-07-23T10:18:41;20.08;70.32
68977;SHT31;56029;52.568;13.588;2022-07-23T10:21:08;20.09;71.10
68977;SHT31;56029;52.568;13.588;2022-07-23T10:23:40;20.13;70.35
68977;SHT31;56029;52.568;13.588;2022-07-23T10:26:22;19.82;68.47
68977;SHT31;56029;52.568;13.588;2022-07-23T10:32:08;20.30;69.29
68977;SHT31;56029;52.568;13.588;2022-07-23T10:37:16;20.79;67.53
68977;SHT31;56029;52.568;13.588;2022-07-23T10:40:08;20.38;67.42
68977;SHT31;56029;52.568;13.588;2022-07-23T10:42:36;20.17;68.15
68977;SHT31;56029;52.568;13.588;2022-07-23T10:45:25;20.45;68.12
68977;SHT31;56029;52.568;13.588;2022-07-23T10:47:51;20.20;67.35
68977;SHT31;56029;52.568;13.588;2022-07-23T10:57:57;20.38;67.93
68977;SHT31;56029;52.568;13.588;2022-07-23T11:00:24;20.54;68.40
68977;SHT31;56029;52.568;13.588;2022-07-23T11:02:55;20.57;67.94
68977;SHT31;56029;52.568;13.588;2022-07-23T11:05:23;20.84;67.26
68977;SHT31;56029;52.568;13.588;2022-07-23T11:10:44;20.74;67.09
68977;SHT31;56029;52.568;13.588;2022-07-23T11:32:02;21.63;65.56
68977;SHT31;56029;52.568;13.588;2022-07-23T11:34:33;21.32;64.38
68977;SHT31;56029;52.568;13.588;2022-07-23T11:37:00;21.08;64.20
68977;SHT31;56029;52.568;13.588;2022-07-23T11:39:26;20.89;65.90
68977;SHT31;56029;52.568;13.588;2022-07-23T11:41:52;20.84;66.58
68977;SHT31;56029;52.568;13.588;2022-07-23T11:44:32;20.78;66.27
68977;SHT31;56029;52.568;13.588;2022-07-23T11:47:04;20.89;66.10
68977;SHT31;56029;52.568;13.588;2022-07-23T11:49:31;21.00;64.87
68977;SHT31;56029;52.568;13.588;2022-07-23T11:54:35;21.73;66.18
68977;SHT31;56029;52.568;13.588;2022-07-23T11:57:02;21.91;63.56
68977;SHT31;56029;52.568;13.588;2022-07-23T11:59:32;21.77;62.82
68977;SHT31;56029;52.568;13.588;2022-07-23T12:02:00;22.19;63.88
68977;SHT31;56029;52.568;13.588;2022-07-23T12:07:29;22.22;61.87
68977;SHT31;56029;52.568;13.588;2022-07-23T12:10:04;21.88;61.28
68977;SHT31;56029;52.568;13.588;2022-07-23T12:12:38;21.81;62.44
68977;SHT31;56029;52.568;13.588;2022-07-23T12:15:05;21.75;62.02
68977;SHT31;56029;52.568;13.588;2022-07-23T12:17:34;21.80;62.90
68977;SHT31;56029;52.568;13.588;2022-07-23T12:20:01;21.95;61.72
68977;SHT31;56029;52.568;13.588;2022-07-23T12:22:43;21.94;61.44
68977;SHT31;56029;52.568;13.588;2022-07-23T12:25:12;21.91;62.41
68977;SHT31;56029;52.568;13.588;2022-07-23T12:27:38;22.02;62.40
68977;SHT31;56029;52.568;13.588;2022-07-23T12:32:46;22.14;62.58
68977;SHT31;56029;52.568;13.588;2022-07-23T12:35:11;22.25;61.93
68977;SHT31;56029;52.568;13.588;2022-07-23T12:37:40;22.21;60.87
68977;SHT31;56029;52.568;13.588;2022-07-23T12:40:31;22.53;61.71
68977;SHT31;56029;52.568;13.588;2022-07-23T12:43:09;22.67;61.15
68977;SHT31;56029;52.568;13.588;2022-07-23T12:48:28;23.20;58.27
68977;SHT31;56029;52.568;13.588;2022-07-23T12:51:00;23.17;57.30
68977;SHT31;56029;52.568;13.588;2022-07-23T12:53:27;23.22;57.83
68977;SHT31;56029;52.568;13.588;2022-07-23T12:55:59;23.22;56.74
68977;SHT31;56029;52.568;13.588;2022-07-23T12:58:49;23.27;58.63
68977;SHT31;56029;52.568;13.588;2022-07-23T13:04:03;23.55;57.30
68977;SHT31;56029;52.568;13.588;2022-07-23T13:06:31;23.66;57.12
68977;SHT31;56029;52.568;13.588;2022-07-23T13:08:57;23.55;55.97
68977;SHT31;56029;52.568;13.588;2022-07-23T13:11:23;23.31;57.76
68977;SHT31;56029;52.568;13.588;2022-07-23T13:13:49;23.27;57.50
68977;SHT31;56029;52.568;13.588;2022-07-23T13:16:15;23.11;57.26
68977;SHT31;56029;52.568;13.588;2022-07-23T13:18:40;22.74;57.08
68977;SHT31;56029;52.568;13.588;2022-07-23T13:21:06;22.66;57.48
68977;SHT31;56029;52.568;13.588;2022-07-23T13:23:32;22.46;58.30
68977;SHT31;56029;52.568;13.588;2022-07-23T13:25:58;22.36;58.31
68977;SHT31;56029;52.568;13.588;2022-07-23T13:28:23;22.36;58.14
68977;SHT31;56029;52.568;13.588;2022-07-23T13:30:50;22.69;57.47
68977;SHT31;56029;52.568;13.588;2022-07-23T13:33:20;23.04;58.38
68977;SHT31;56029;52.568;13.588;2022-07-23T13:35:46;23.15;56.09
68977;SHT31;56029;52.568;13.588;2022-07-23T13:38:13;23.34;56.17
68977;SHT31;56029;52.568;13.588;2022-07-23T13:40:42;23.44;54.99
68977;SHT31;56029;52.568;13.588;2022-07-23T13:43:10;23.44;55.67
68977;SHT31;56029;52.568;13.588;2022-07-23T13:45:36;23.15;55.45
68977;SHT31;56029;52.568;13.588;2022-07-23T13:48:02;23.08;56.35
68977;SHT31;56029;52.568;13.588;2022-07-23T13:50:28;23.08;57.04
68977;SHT31;56029;52.568;13.588;2022-07-23T13:52:53;23.40;55.49
68977;SHT31;56029;52.568;13.588;2022-07-23T13:55:19;23.04;55.84
68977;SHT31;56029;52.568;13.588;2022-07-23T13:57:44;22.97;56.60
68977;SHT31;56029;52.568;13.588;2022-07-23T14:00:11;22.76;56.09
68977;SHT31;56029;52.568;13.588;2022-07-23T14:02:38;22.97;56.32
68977;SHT31;56029;52.568;13.588;2022-07-23T14:05:06;23.06;55.91
68977;SHT31;56029;52.568;13.588;2022-07-23T14:07:33;23.20;55.47
68977;SHT31;56029;52.568;13.588;2022-07-23T14:09:59;23.22;54.97
68977;SHT31;56029;52.568;13.588;2022-07-23T14:12:25;23.51;55.39
68977;SHT31;56029;52.568;13.588;2022-07-23T14:14:51;23.80;54.23
68977;SHT31;56029;52.568;13.588;2022-07-23T14:17:16;23.79;52.65
68977;SHT31;56029;52.568;13.588;2022-07-23T14:19:42;23.86;53.34
68977;SHT31;56029;52.568;13.588;2022-07-23T14:22:08;24.07;52.59
68977;SHT31;56029;52.568;13.588;2022-07-23T14:24:34;24.21;53.64
68977;SHT31;56029;52.568;13.588;2022-07-23T14:27:00;24.34;52.97
68977;SHT31;56029;52.568;13.588;2022-07-23T14:29:27;24.63;52.38
68977;SHT31;56029;52.568;13.588;2022-07-23T14:31:52;24.61;52.15
68977;SHT31;56029;52.568;13.588;2022-07-23T14:34:18;24.24;52.66
68977;SHT31;56029;52.568;13.588;2022-07-23T14:36:44;24.03;52.96
68977;SHT31;56029;52.568;13.588;2022-07-23T14:39:09;24.12;52.45
68977;SHT31;56029;52.568;13.588;2022-07-23T14:41:37;24.02;52.64
68977;SHT31;56029;52.568;13.588;2022-07-23T14:44:03;24.10;51.54
68977;SHT31;56029;52.568;13.588;2022-07-23T14:46:29;24.14;51.39
68977;SHT31;56029;52.568;13.588;2022-07-23T14:48:54;24.28;51.90
68977;SHT31;56029;52.568;13.588;2022-07-23T14:51:20;23.89;51.55
68977;SHT31;56029;52.568;13.588;2022-07-23T14:53:46;23.80;51.33
68977;SHT31;56029;52.568;13.588;2022-07-23T14:56:12;23.75;51.92
68977;SHT31;56029;52.568;13.588;2022-07-23T14:58:39;23.69;51.67
68977;SHT31;56029;52.568;13.588;2022-07-23T15:01:04;23.78;51.54
68977;SHT31;56029;52.568;13.588;2022-07-23T15:03:30;23.96;51.32
68977;SHT31;56029;52.568;13.588;2022-07-23T15:05:55;24.09;52.14
68977;SHT31;56029;52.568;13.588;2022-07-23T15:08:21;24.00;50.86
68977;SHT31;56029;52.568;13.588;2022-07-23T15:10:47;23.66;50.99
68977;SHT31;56029;52.568;13.588;2022-07-23T15:13:12;23.65;51.76
68977;SHT31;56029;52.568;13.588;2022-07-23T15:15:38;23.59;51.51
68977;SHT31;56029;52.568;13.588;2022-07-23T15:18:03;23.88;51.84
68977;SHT31;56029;52.568;13.588;2022-07-23T15:20:29;23.90;51.98
68977;SHT31;56029;52.568;13.588;2022-07-23T15:22:55;24.05;51.33
68977;SHT31;56029;52.568;13.588;2022-07-23T15:25:20;23.96;50.50
68977;SHT31;56029;52.568;13.588;2022-07-23T15:27:46;24.13;50.66
68977;SHT31;56029;52.568;13.588;2022-07-23T15:30:11;24.40;49.35
68977;SHT31;56029;52.568;13.588;2022-07-23T15:32:37;24.37;48.71
68977;SHT31;56029;52.568;13.588;2022-07-23T15:35:04;24.55;48.53
68977;SHT31;56029;52.568;13.588;2022-07-23T15:37:32;24.41;48.47
68977;SHT31;56029;52.568;13.588;2022-07-23T15:39:57;24.14;49.11
68977;SHT31;56029;52.568;13.588;2022-07-23T15:42:23;23.93;48.60
68977;SHT31;56029;52.568;13.588;2022-07-23T15:44:49;23.80;48.56
68977;SHT31;56029;52.568;13.588;2022-07-23T15:47:16;23.95;48.50
68977;SHT31;56029;52.568;13.588;2022-07-23T15:49:44;24.09;47.90
68977;SHT31;56029;52.568;13.588;2022-07-23T15:52:10;24.34;48.22
68977;SHT31;56029;52.568;13.588;2022-07-23T15:54:37;24.85;47.15
68977;SHT31;56029;52.568;13.588;2022-07-23T15:57:03;24.81;46.78
68977;SHT31;56029;52.568;13.588;2022-07-23T15:59:29;25.09;45.25
68977;SHT31;56029;52.568;13.588;2022-07-23T16:01:54;25.40;44.94
68977;SHT31;56029;52.568;13.588;2022-07-23T16:04:20;26.39;42.51
68977;SHT31;56029;52.568;13.588;2022-07-23T16:06:45;27.03;42.43
68977;SHT31;56029;52.568;13.588;2022-07-23T16:09:11;26.38;42.79